sensor_id;sensor_type;location;lat;lon;timestamp;pressure;altitude;pressure_sealevel;temperature;humidity
75051;BME280;63628;47.656;11.310;2023-07-31T00:01:53;95006.53;;;20.73;64.54
75051;BME280;63628;47.656;11.310;2023-07-31T00:04:22;95005.47;;;20.74;64.38
75051;BME280;63628;47.656;11.310;2023-07-31T00:06:48;95006.25;;;20.74;64.16
75051;BME280;63628;47.656;11.310;2023-07-31T00:09:15;95008.94;;;20.74;64.12
75051;BME280;63628;47.656;11.310;2023-07-31T00:11:41;95014.09;;;20.71;64.37
75051;BME280;63628;47.656;11.310;2023-07-31T00:14:08;95004.59;;;20.78;63.82
75051;BME280;63628;47.656;11.310;2023-07-31T00:16:35;95003.28;;;20.76;64.09
75051;BME280;63628;47.656;11.310;2023-07-31T00:19:02;95003.84;;;20.73;64.02
75051;BME280;63628;47.656;11.310;2023-07-31T00:21:30;94997.38;;;20.74;64.03
75051;BME280;63628;47.656;11.310;2023-07-31T00:23:57;94991.78;;;20.70;64.16
75051;BME280;63628;47.656;11.310;2023-07-31T00:26:23;94992.81;;;20.74;63.77
75051;BME280;63628;47.656;11.310;2023-07-31T00:28:50;94982.41;;;20.68;64.21
75051;BME280;63628;47.656;11.310;2023-07-31T00:31:17;94986.19;;;20.67;64.00
75051;BME280;63628;47.656;11.310;2023-07-31T00:33:43;94988.44;;;20.60;64.25
75051;BME280;63628;47.656;11.310;2023-07-31T00:36:10;94981.81;;;20.52;64.33
75051;BME280;63628;47.656;11.310;2023-07-31T00:38:38;94983.13;;;20.54;64.41
75051;BME280;63628;47.656;11.310;2023-07-31T00:41:05;94976.31;;;20.62;63.77
75051;BME280;63628;47.656;11.310;2023-07-31T00:43:31;94973.47;;;20.53;64.24
75051;BME280;63628;47.656;11.310;2023-07-31T00:45:58;94976.38;;;20.57;63.98
75051;BME280;63628;47.656;11.310;2023-07-31T00:48:25;94968.16;;;20.48;64.39
75051;BME280;63628;47.656;11.310;2023-07-31T00:50:52;94967.06;;;20.49;64.29
75051;BME280;63628;47.656;11.310;2023-07-31T00:53:19;94958.34;;;20.57;63.95
75051;BME280;63628;47.656;11.310;2023-07-31T00:55:47;94965.53;;;20.62;63.66
75051;BME280;63628;47.656;11.310;2023-07-31T00:58:14;94961.31;;;20.56;63.54
75051;BME280;63628;47.656;11.310;2023-07-31T01:00:41;94968.53;;;20.42;64.32
75051;BME280;63628;47.656;11.310;2023-07-31T01:03:07;94961.84;;;20.39;64.40
75051;BME280;63628;47.656;11.310;2023-07-31T01:05:39;94951.34;;;20.38;64.18
75051;BME280;63628;47.656;11.310;2023-07-31T01:08:15;94957.00;;;20.36;64.50
75051;BME280;63628;47.656;11.310;2023-07-31T01:10:50;94958.59;;;20.37;64.22
75051;BME280;63628;47.656;11.310;2023-07-31T01:13:19;94952.09;;;20.43;63.91
75051;BME280;63628;47.656;11.310;2023-07-31T01:15:46;94948.31;;;20.44;63.64
75051;BME280;63628;47.656;11.310;2023-07-31T01:18:12;94948.66;;;20.38;64.18
75051;BME280;63628;47.656;11.310;2023-07-31T01:20:41;94943.53;;;20.41;63.83
75051;BME280;63628;47.656;11.310;2023-07-31T01:23:54;94945.91;;;20.43;63.83
75051;BME280;63628;47.656;11.310;2023-07-31T01:26:34;94937.69;;;20.34;63.95
75051;BME280;63628;47.656;11.310;2023-07-31T01:29:07;94943.13;;;20.29;64.30
75051;BME280;63628;47.656;11.310;2023-07-31T01:31:36;94939.50;;;20.39;63.53
75051;BME280;63628;47.656;11.310;2023-07-31T01:34:03;94933.31;;;20.38;63.56
75051;BME280;63628;47.656;11.310;2023-07-31T01:36:31;94935.84;;;20.30;63.55
75051;BME280;63628;47.656;11.310;2023-07-31T01:38:58;94937.09;;;20.18;64.01
75051;BME280;63628;47.656;11.310;2023-07-31T01:41:26;94934.09;;;20.20;64.32
75051;BME280;63628;47.656;11.310;2023-07-31T01:43:54;94933.75;;;20.26;63.60
75051;BME280;63628;47.656;11.310;2023-07-31T01:46:21;94933.31;;;20.19;63.96
75051;BME280;63628;47.656;11.310;2023-07-31T01:48:48;94929.06;;;20.13;64.36
75051;BME280;63628;47.656;11.310;2023-07-31T01:51:15;94924.53;;;20.09;64.40
75051;BME280;63628;47.656;11.310;2023-07-31T01:53:41;94921.78;;;20.14;64.05
75051;BME280;63628;47.656;11.310;2023-07-31T01:56:08;94922.03;;;20.17;63.80
75051;BME280;63628;47.656;11.310;2023-07-31T01:58:34;94918.81;;;20.15;63.85
75051;BME280;63628;47.656;11.310;2023-07-31T02:01:02;94923.66;;;20.18;63.82
75051;BME280;63628;47.656;11.310;2023-07-31T02:03:29;94925.84;;;20.11;63.58
75051;BME280;63628;47.656;11.310;2023-07-31T02:05:56;94925.34;;;20.09;63.99
75051;BME280;63628;47.656;11.310;2023-07-31T02:08:23;94926.63;;;20.17;63.39
75051;BME280;63628;47.656;11.310;2023-07-31T02:10:50;94915.16;;;20.06;63.92
75051;BME280;63628;47.656;11.310;2023-07-31T02:13:16;94917.63;;;20.03;63.81
75051;BME280;63628;47.656;11.310;2023-07-31T02:15:43;94913.56;;;20.05;63.80
75051;BME280;63628;47.656;11.310;2023-07-31T02:18:11;94912.03;;;19.99;64.09
75051;BME280;63628;47.656;11.310;2023-07-31T02:20:37;94914.72;;;19.99;63.65
75051;BME280;63628;47.656;11.310;2023-07-31T02:23:04;94921.47;;;19.97;63.85
75051;BME280;63628;47.656;11.310;2023-07-31T02:25:31;94917.34;;;20.04;63.59
75051;BME280;63628;47.656;11.310;2023-07-31T02:27:57;94914.78;;;19.94;63.73
75051;BME280;63628;47.656;11.310;2023-07-31T02:30:24;94910.78;;;19.91;63.93
75051;BME280;63628;47.656;11.310;2023-07-31T02:32:51;94914.34;;;19.87;64.00
75051;BME280;63628;47.656;11.310;2023-07-31T02:35:19;94913.13;;;19.98;63.53
75051;BME280;63628;47.656;11.310;2023-07-31T02:37:45;94912.16;;;19.89;63.86
75051;BME280;63628;47.656;11.310;2023-07-31T02:40:13;94921.69;;;20.00;63.45
75051;BME280;63628;47.656;11.310;2023-07-31T02:42:39;94906.44;;;19.95;63.28
75051;BME280;63628;47.656;11.310;2023-07-31T02:45:07;94912.81;;;19.81;63.68
75051;BME280;63628;47.656;11.310;2023-07-31T02:47:34;94909.38;;;19.75;64.00
75051;BME280;63628;47.656;11.310;2023-07-31T02:50:01;94914.75;;;19.75;63.88
75051;BME280;63628;47.656;11.310;2023-07-31T02:52:29;94894.06;;;19.76;63.93
75051;BME280;63628;47.656;11.310;2023-07-31T02:54:56;94900.81;;;19.73;63.78
75051;BME280;63628;47.656;11.310;2023-07-31T02:57:22;94894.69;;;19.68;63.98
75051;BME280;63628;47.656;11.310;2023-07-31T02:59:49;94890.41;;;19.67;63.88
75051;BME280;63628;47.656;11.310;2023-07-31T03:02:16;94887.66;;;19.72;63.48
75051;BME280;63628;47.656;11.310;2023-07-31T03:04:43;94886.94;;;19.66;63.80
75051;BME280;63628;47.656;11.310;2023-07-31T03:07:09;94889.03;;;19.69;63.73
75051;BME280;63628;47.656;11.310;2023-07-31T03:09:37;94887.09;;;19.75;63.42
75051;BME280;63628;47.656;11.310;2023-07-31T03:12:04;94889.78;;;19.75;63.39
75051;BME280;63628;47.656;11.310;2023-07-31T03:14:31;94892.91;;;19.82;63.11
75051;BME280;63628;47.656;11.310;2023-07-31T03:16:59;94888.41;;;19.77;63.11
75051;BME280;63628;47.656;11.310;2023-07-31T03:19:25;94893.56;;;19.74;63.07
75051;BME280;63628;47.656;11.310;2023-07-31T03:21:52;94892.47;;;19.75;63.14
75051;BME280;63628;47.656;11.310;2023-07-31T03:24:19;94888.59;;;19.62;63.29
75051;BME280;63628;47.656;11.310;2023-07-31T03:26:47;94883.28;;;19.57;63.56
75051;BME280;63628;47.656;11.310;2023-07-31T03:29:13;94892.06;;;19.62;63.13
75051;BME280;63628;47.656;11.310;2023-07-31T03:31:40;94886.19;;;19.60;63.48
75051;BME280;63628;47.656;11.310;2023-07-31T03:34:07;94894.31;;;19.55;63.54
75051;BME280;63628;47.656;11.310;2023-07-31T03:36:34;94896.75;;;19.52;63.61
75051;BME280;63628;47.656;11.310;2023-07-31T03:39:00;94901.34;;;19.46;63.72
75051;BME280;63628;47.656;11.310;2023-07-31T03:41:27;94898.66;;;19.46;63.53
75051;BME280;63628;47.656;11.310;2023-07-31T03:43:55;94890.06;;;19.44;63.29
75051;BME280;63628;47.656;11.310;2023-07-31T03:46:24;94893.69;;;19.35;63.96
75051;BME280;63628;47.656;11.310;2023-07-31T03:48:51;94888.53;;;19.38;63.78
75051;BME280;63628;47.656;11.310;2023-07-31T03:51:18;94892.75;;;19.44;63.28
75051;BME280;63628;47.656;11.310;2023-07-31T03:53:45;94890.41;;;19.38;63.25
75051;BME280;63628;47.656;11.310;2023-07-31T03:56:12;94890.41;;;19.38;63.46
75051;BME280;63628;47.656;11.310;2023-07-31T03:58:38;94890.94;;;19.40;63.35
75051;BME280;63628;47.656;11.310;2023-07-31T04:01:06;94892.25;;;19.42;63.18
75051;BME280;63628;47.656;11.310;2023-07-31T04:03:33;94892.53;;;19.41;63.27
75051;BME280;63628;47.656;11.310;2023-07-31T04:06:00;94890.47;;;19.32;63.38
75051;BME280;63628;47.656;11.310;2023-07-31T04:08:26;94889.16;;;19.30;63.29
75051;BME280;63628;47.656;11.310;2023-07-31T04:10:53;94888.59;;;19.33;63.21
75051;BME280;63628;47.656;11.310;2023-07-31T04:13:22;94892.31;;;19.37;63.13
75051;BME280;63628;47.656;11.310;2023-07-31T04:15:49;94884.03;;;19.33;63.13
75051;BME280;63628;47.656;11.310;2023-07-31T04:18:18;94891.09;;;19.24;63.21
75051;BME280;63628;47.656;11.310;2023-07-31T04:20:44;94894.53;;;19.30;63.12
75051;BME280;63628;47.656;11.310;2023-07-31T04:23:11;94896.34;;;19.35;62.99
75051;BME280;63628;47.656;11.310;2023-07-31T04:25:38;94896.81;;;19.18;57.97
75051;BME280;63628;47.656;11.310;2023-07-31T04:28:05;94889.97;;;19.30;62.72
75051;BME280;63628;47.656;11.310;2023-07-31T04:30:32;94886.00;;;19.23;63.12
75051;BME280;63628;47.656;11.310;2023-07-31T04:32:58;94888.75;;;19.18;63.11
75051;BME280;63628;47.656;11.310;2023-07-31T04:35:27;94888.28;;;19.11;63.43
75051;BME280;63628;47.656;11.310;2023-07-31T04:37:54;94889.84;;;19.17;63.40
75051;BME280;63628;47.656;11.310;2023-07-31T04:40:21;94893.56;;;19.21;63.05
75051;BME280;63628;47.656;11.310;2023-07-31T04:42:48;94880.94;;;19.21;62.91
75051;BME280;63628;47.656;11.310;2023-07-31T04:45:14;94882.69;;;19.07;63.51
75051;BME280;63628;47.656;11.310;2023-07-31T04:47:41;94878.69;;;19.05;63.58
75051;BME280;63628;47.656;11.310;2023-07-31T04:50:08;94883.72;;;19.11;63.16
75051;BME280;63628;47.656;11.310;2023-07-31T04:52:37;94881.19;;;18.96;63.68
75051;BME280;63628;47.656;11.310;2023-07-31T04:55:04;94882.25;;;18.95;63.80
75051;BME280;63628;47.656;11.310;2023-07-31T04:57:30;94881.66;;;19.03;63.49
75051;BME280;63628;47.656;11.310;2023-07-31T04:59:57;94879.72;;;19.09;63.24
75051;BME280;63628;47.656;11.310;2023-07-31T05:02:24;94883.59;;;18.97;63.76
75051;BME280;63628;47.656;11.310;2023-07-31T05:04:51;94882.78;;;18.97;63.72
75051;BME280;63628;47.656;11.310;2023-07-31T05:07:17;94884.38;;;18.98;63.54
75051;BME280;63628;47.656;11.310;2023-07-31T05:09:45;94881.41;;;18.99;63.69
75051;BME280;63628;47.656;11.310;2023-07-31T05:12:12;94886.41;;;19.11;63.18
75051;BME280;63628;47.656;11.310;2023-07-31T05:14:39;94893.78;;;18.95;63.72
75051;BME280;63628;47.656;11.310;2023-07-31T05:17:05;94891.41;;;18.94;63.68
75051;BME280;63628;47.656;11.310;2023-07-31T05:19:32;94898.34;;;18.95;63.56
75051;BME280;63628;47.656;11.310;2023-07-31T05:21:59;94901.09;;;18.90;63.95
75051;BME280;63628;47.656;11.310;2023-07-31T05:24:25;94904.75;;;18.99;63.51
75051;BME280;63628;47.656;11.310;2023-07-31T05:26:53;94901.91;;;18.85;64.45
75051;BME280;63628;47.656;11.310;2023-07-31T05:29:20;94910.34;;;17.50;69.99
75051;BME280;63628;47.656;11.310;2023-07-31T05:31:47;94910.47;;;17.04;70.64
75051;BME280;63628;47.656;11.310;2023-07-31T05:34:13;94910.63;;;17.58;69.96
75051;BME280;63628;47.656;11.310;2023-07-31T05:36:40;94909.81;;;17.48;69.65
75051;BME280;63628;47.656;11.310;2023-07-31T05:39:07;94897.91;;;17.94;67.64
75051;BME280;63628;47.656;11.310;2023-07-31T05:41:35;94899.66;;;18.63;64.87
75051;BME280;63628;47.656;11.310;2023-07-31T05:44:04;94906.78;;;18.78;64.64
75051;BME280;63628;47.656;11.310;2023-07-31T05:46:30;94906.00;;;18.78;64.46
75051;BME280;63628;47.656;11.310;2023-07-31T05:48:58;94900.31;;;18.84;64.26
75051;BME280;63628;47.656;11.310;2023-07-31T05:51:27;94898.69;;;18.88;64.16
75051;BME280;63628;47.656;11.310;2023-07-31T05:53:54;94900.56;;;18.88;64.09
75051;BME280;63628;47.656;11.310;2023-07-31T05:56:21;94894.59;;;18.96;63.84
75051;BME280;63628;47.656;11.310;2023-07-31T05:58:48;94891.44;;;18.89;63.99
75051;BME280;63628;47.656;11.310;2023-07-31T06:01:17;94898.69;;;17.10;69.82
75051;BME280;63628;47.656;11.310;2023-07-31T06:03:44;94894.00;;;17.77;67.75
75051;BME280;63628;47.656;11.310;2023-07-31T06:06:11;94894.66;;;18.02;67.19
75051;BME280;63628;47.656;11.310;2023-07-31T06:08:38;94892.97;;;18.61;64.90
75051;BME280;63628;47.656;11.310;2023-07-31T06:11:04;94892.63;;;18.73;64.73
75051;BME280;63628;47.656;11.310;2023-07-31T06:13:32;94888.81;;;18.79;64.45
75051;BME280;63628;47.656;11.310;2023-07-31T06:15:58;94884.75;;;18.86;64.18
75051;BME280;63628;47.656;11.310;2023-07-31T06:18:27;94890.75;;;18.73;64.81
75051;BME280;63628;47.656;11.310;2023-07-31T06:20:54;94886.66;;;18.81;65.04
75051;BME280;63628;47.656;11.310;2023-07-31T06:23:20;94890.03;;;18.62;65.38
75051;BME280;63628;47.656;11.310;2023-07-31T06:25:47;94884.22;;;18.45;66.43
75051;BME280;63628;47.656;11.310;2023-07-31T06:28:14;94884.81;;;18.76;65.20
75051;BME280;63628;47.656;11.310;2023-07-31T06:30:41;94879.28;;;18.23;70.32
75051;BME280;63628;47.656;11.310;2023-07-31T06:33:07;94887.38;;;18.13;69.89
75051;BME280;63628;47.656;11.310;2023-07-31T06:35:37;94890.63;;;18.05;69.87
75051;BME280;63628;47.656;11.310;2023-07-31T06:38:03;94895.91;;;17.61;69.75
75051;BME280;63628;47.656;11.310;2023-07-31T06:40:30;94894.66;;;18.47;68.01
75051;BME280;63628;47.656;11.310;2023-07-31T06:42:57;94899.25;;;18.80;68.38
75051;BME280;63628;47.656;11.310;2023-07-31T06:45:24;94886.19;;;18.34;72.41
75051;BME280;63628;47.656;11.310;2023-07-31T06:47:50;94883.56;;;18.19;71.25
75051;BME280;63628;47.656;11.310;2023-07-31T06:50:17;94886.31;;;18.53;67.33
75051;BME280;63628;47.656;11.310;2023-07-31T06:52:45;94888.06;;;18.73;65.95
75051;BME280;63628;47.656;11.310;2023-07-31T06:55:17;94886.69;;;18.76;65.85
75051;BME280;63628;47.656;11.310;2023-07-31T06:57:48;94886.97;;;18.74;65.67
75051;BME280;63628;47.656;11.310;2023-07-31T07:00:16;94880.25;;;18.77;65.38
75051;BME280;63628;47.656;11.310;2023-07-31T07:02:43;94872.53;;;19.28;68.84
75051;BME280;63628;47.656;11.310;2023-07-31T07:05:10;94873.78;;;19.12;66.89
75051;BME280;63628;47.656;11.310;2023-07-31T07:07:36;94873.03;;;19.06;68.26
75051;BME280;63628;47.656;11.310;2023-07-31T07:10:06;94876.38;;;19.22;68.87
75051;BME280;63628;47.656;11.310;2023-07-31T07:12:33;94869.84;;;19.81;66.37
75051;BME280;63628;47.656;11.310;2023-07-31T07:15:00;94868.47;;;19.59;68.32
75051;BME280;63628;47.656;11.310;2023-07-31T07:17:28;94872.91;;;18.53;63.67
75051;BME280;63628;47.656;11.310;2023-07-31T07:19:58;94871.16;;;18.73;64.05
75051;BME280;63628;47.656;11.310;2023-07-31T07:22:25;94878.78;;;18.94;65.51
75051;BME280;63628;47.656;11.310;2023-07-31T07:24:52;94876.91;;;18.56;65.96
75051;BME280;63628;47.656;11.310;2023-07-31T07:27:20;94872.84;;;18.63;65.88
75051;BME280;63628;47.656;11.310;2023-07-31T07:29:50;94857.16;;;18.81;66.06
75051;BME280;63628;47.656;11.310;2023-07-31T07:32:16;94866.00;;;18.81;63.80
75051;BME280;63628;47.656;11.310;2023-07-31T07:34:44;94868.03;;;18.60;64.22
75051;BME280;63628;47.656;11.310;2023-07-31T07:37:11;94859.72;;;18.96;62.97
75051;BME280;63628;47.656;11.310;2023-07-31T07:39:38;94852.88;;;19.61;61.79
75051;BME280;63628;47.656;11.310;2023-07-31T07:42:05;94852.72;;;20.33;60.77
75051;BME280;63628;47.656;11.310;2023-07-31T07:44:33;94854.41;;;19.68;60.19
75051;BME280;63628;47.656;11.310;2023-07-31T07:46:59;94851.97;;;19.18;63.25
75051;BME280;63628;47.656;11.310;2023-07-31T07:49:26;94854.47;;;18.86;59.10
75051;BME280;63628;47.656;11.310;2023-07-31T07:51:53;94850.72;;;21.55;57.68
75051;BME280;63628;47.656;11.310;2023-07-31T07:54:19;94844.97;;;20.50;57.16
75051;BME280;63628;47.656;11.310;2023-07-31T07:56:49;94843.19;;;22.07;59.23
75051;BME280;63628;47.656;11.310;2023-07-31T07:59:16;94837.97;;;22.69;55.81
75051;BME280;63628;47.656;11.310;2023-07-31T08:01:44;94832.09;;;20.47;54.93
75051;BME280;63628;47.656;11.310;2023-07-31T08:04:11;94833.25;;;20.04;56.39
75051;BME280;63628;47.656;11.310;2023-07-31T08:06:38;94824.88;;;20.94;58.47
75051;BME280;63628;47.656;11.310;2023-07-31T08:09:05;94823.91;;;21.17;63.83
75051;BME280;63628;47.656;11.310;2023-07-31T08:11:33;94823.09;;;20.38;57.47
75051;BME280;63628;47.656;11.310;2023-07-31T08:14:00;94820.19;;;19.30;58.28
75051;BME280;63628;47.656;11.310;2023-07-31T08:16:26;94825.72;;;19.15;59.13
75051;BME280;63628;47.656;11.310;2023-07-31T08:18:54;94822.41;;;19.71;61.56
75051;BME280;63628;47.656;11.310;2023-07-31T08:21:22;94817.94;;;20.74;56.18
75051;BME280;63628;47.656;11.310;2023-07-31T08:23:49;94811.31;;;20.34;60.71
75051;BME280;63628;47.656;11.310;2023-07-31T08:26:16;94807.69;;;21.77;57.64
75051;BME280;63628;47.656;11.310;2023-07-31T08:28:43;94810.13;;;22.01;53.23
75051;BME280;63628;47.656;11.310;2023-07-31T08:31:10;94812.47;;;22.75;55.71
75051;BME280;63628;47.656;11.310;2023-07-31T08:33:37;94797.94;;;22.62;53.99
75051;BME280;63628;47.656;11.310;2023-07-31T08:36:05;94806.09;;;21.76;53.58
75051;BME280;63628;47.656;11.310;2023-07-31T08:38:32;94796.97;;;22.36;54.65
75051;BME280;63628;47.656;11.310;2023-07-31T08:40:59;94794.75;;;22.02;53.13
75051;BME280;63628;47.656;11.310;2023-07-31T08:43:26;94798.16;;;21.94;54.42
75051;BME280;63628;47.656;11.310;2023-07-31T08:45:54;94792.44;;;21.32;53.41
75051;BME280;63628;47.656;11.310;2023-07-31T08:48:22;94796.50;;;21.15;54.85
75051;BME280;63628;47.656;11.310;2023-07-31T08:50:49;94785.13;;;21.73;58.72
75051;BME280;63628;47.656;11.310;2023-07-31T08:53:17;94786.84;;;22.41;53.01
75051;BME280;63628;47.656;11.310;2023-07-31T08:55:44;94774.66;;;21.72;56.73
75051;BME280;63628;47.656;11.310;2023-07-31T08:58:12;94781.25;;;21.11;56.53
75051;BME280;63628;47.656;11.310;2023-07-31T09:00:40;94783.31;;;21.82;55.65
75051;BME280;63628;47.656;11.310;2023-07-31T09:03:09;94793.91;;;21.79;55.89
75051;BME280;63628;47.656;11.310;2023-07-31T09:05:36;94793.41;;;21.77;58.98
75051;BME280;63628;47.656;11.310;2023-07-31T09:08:08;94783.16;;;20.64;59.91
75051;BME280;63628;47.656;11.310;2023-07-31T09:10:40;94789.50;;;21.14;64.23
75051;BME280;63628;47.656;11.310;2023-07-31T09:13:07;94777.41;;;22.97;55.03
75051;BME280;63628;47.656;11.310;2023-07-31T09:15:39;94777.47;;;22.61;56.52
75051;BME280;63628;47.656;11.310;2023-07-31T09:18:07;94774.34;;;21.73;54.09
75051;BME280;63628;47.656;11.310;2023-07-31T09:20:34;94774.94;;;20.88;55.64
75051;BME280;63628;47.656;11.310;2023-07-31T09:23:08;94771.41;;;21.47;58.76
75051;BME280;63628;47.656;11.310;2023-07-31T09:25:37;94787.22;;;21.21;58.25
75051;BME280;63628;47.656;11.310;2023-07-31T09:28:06;94789.09;;;20.47;60.85
75051;BME280;63628;47.656;11.310;2023-07-31T09:30:45;94785.41;;;21.86;55.43
75051;BME280;63628;47.656;11.310;2023-07-31T09:33:13;94780.44;;;23.44;56.04
75051;BME280;63628;47.656;11.310;2023-07-31T09:35:40;94771.19;;;23.85;52.46
75051;BME280;63628;47.656;11.310;2023-07-31T09:38:09;94770.09;;;24.12;52.55
75051;BME280;63628;47.656;11.310;2023-07-31T09:40:38;94767.47;;;23.55;51.52
75051;BME280;63628;47.656;11.310;2023-07-31T09:43:06;94774.22;;;22.28;53.18
75051;BME280;63628;47.656;11.310;2023-07-31T09:45:34;94772.84;;;23.15;53.04
75051;BME280;63628;47.656;11.310;2023-07-31T09:48:08;94765.25;;;23.17;52.51
75051;BME280;63628;47.656;11.310;2023-07-31T09:50:37;94764.00;;;22.39;52.03
75051;BME280;63628;47.656;11.310;2023-07-31T09:53:04;94764.59;;;21.64;58.67
75051;BME280;63628;47.656;11.310;2023-07-31T09:55:31;94766.91;;;20.69;58.02
75051;BME280;63628;47.656;11.310;2023-07-31T09:58:03;94758.31;;;20.53;57.27
75051;BME280;63628;47.656;11.310;2023-07-31T10:00:31;94752.94;;;22.49;55.57
75051;BME280;63628;47.656;11.310;2023-07-31T10:02:58;94750.53;;;22.92;52.03
75051;BME280;63628;47.656;11.310;2023-07-31T10:05:30;94755.78;;;21.72;57.16
75051;BME280;63628;47.656;11.310;2023-07-31T10:07:57;94757.59;;;20.94;60.78
75051;BME280;63628;47.656;11.310;2023-07-31T10:10:25;94754.00;;;20.85;61.40
75051;BME280;63628;47.656;11.310;2023-07-31T10:12:52;94740.97;;;21.33;57.20
75051;BME280;63628;47.656;11.310;2023-07-31T10:15:20;94743.16;;;21.31;55.35
75051;BME280;63628;47.656;11.310;2023-07-31T10:17:48;94740.97;;;21.33;54.50
75051;BME280;63628;47.656;11.310;2023-07-31T10:20:16;94736.88;;;20.95;62.06
75051;BME280;63628;47.656;11.310;2023-07-31T10:22:43;94740.16;;;20.92;61.72
75051;BME280;63628;47.656;11.310;2023-07-31T10:25:10;94727.31;;;21.02;61.40
75051;BME280;63628;47.656;11.310;2023-07-31T10:27:38;94727.50;;;21.06;66.42
75051;BME280;63628;47.656;11.310;2023-07-31T10:30:07;94734.28;;;21.31;56.04
75051;BME280;63628;47.656;11.310;2023-07-31T10:32:38;94722.94;;;21.34;57.95
75051;BME280;63628;47.656;11.310;2023-07-31T10:35:08;94723.78;;;20.74;57.71
75051;BME280;63628;47.656;11.310;2023-07-31T10:37:37;94726.81;;;21.55;57.00
75051;BME280;63628;47.656;11.310;2023-07-31T10:40:05;94716.50;;;20.61;57.81
75051;BME280;63628;47.656;11.310;2023-07-31T10:42:34;94720.91;;;21.39;56.49
75051;BME280;63628;47.656;11.310;2023-07-31T10:45:03;94716.22;;;21.17;57.26
75051;BME280;63628;47.656;11.310;2023-07-31T10:47:30;94704.97;;;21.43;58.01
75051;BME280;63628;47.656;11.310;2023-07-31T10:50:17;94696.09;;;21.78;55.63
75051;BME280;63628;47.656;11.310;2023-07-31T10:52:47;94706.50;;;21.71;56.98
75051;BME280;63628;47.656;11.310;2023-07-31T10:55:16;94703.97;;;21.52;55.66
75051;BME280;63628;47.656;11.310;2023-07-31T10:57:48;94705.88;;;22.10;56.53
75051;BME280;63628;47.656;11.310;2023-07-31T11:00:19;94705.13;;;21.60;56.79
75051;BME280;63628;47.656;11.310;2023-07-31T11:02:56;94699.91;;;23.06;53.61
75051;BME280;63628;47.656;11.310;2023-07-31T11:08:26;94689.72;;;22.33;58.87
75051;BME280;63628;47.656;11.310;2023-07-31T11:11:05;94687.03;;;21.74;54.25
75051;BME280;63628;47.656;11.310;2023-07-31T11:13:34;94679.56;;;21.94;54.49
75051;BME280;63628;47.656;11.310;2023-07-31T11:16:01;94676.31;;;22.50;53.28
75051;BME280;63628;47.656;11.310;2023-07-31T11:18:27;94673.25;;;22.12;53.71
75051;BME280;63628;47.656;11.310;2023-07-31T11:20:54;94667.06;;;22.11;52.41
75051;BME280;63628;47.656;11.310;2023-07-31T11:23:22;94662.84;;;21.61;52.71
75051;BME280;63628;47.656;11.310;2023-07-31T11:25:50;94657.06;;;21.54;56.97
75051;BME280;63628;47.656;11.310;2023-07-31T11:28:18;94649.69;;;21.81;55.36
75051;BME280;63628;47.656;11.310;2023-07-31T11:30:46;94650.72;;;21.36;56.45
75051;BME280;63628;47.656;11.310;2023-07-31T11:33:13;94646.94;;;22.18;56.18
75051;BME280;63628;47.656;11.310;2023-07-31T11:35:43;94639.88;;;21.63;55.69
75051;BME280;63628;47.656;11.310;2023-07-31T11:38:12;94638.34;;;21.35;55.32
75051;BME280;63628;47.656;11.310;2023-07-31T11:43:09;94630.81;;;22.26;56.73
75051;BME280;63628;47.656;11.310;2023-07-31T11:45:38;94629.03;;;21.99;58.83
75051;BME280;63628;47.656;11.310;2023-07-31T11:48:06;94628.44;;;21.44;61.83
75051;BME280;63628;47.656;11.310;2023-07-31T11:50:35;94619.44;;;21.62;59.56
75051;BME280;63628;47.656;11.310;2023-07-31T11:53:07;94614.22;;;21.88;53.30
75051;BME280;63628;47.656;11.310;2023-07-31T11:55:34;94611.56;;;22.50;55.69
75051;BME280;63628;47.656;11.310;2023-07-31T11:58:02;94608.03;;;23.72;51.40
75051;BME280;63628;47.656;11.310;2023-07-31T12:00:31;94597.97;;;23.29;52.32
75051;BME280;63628;47.656;11.310;2023-07-31T12:02:58;94605.16;;;21.62;52.36
75051;BME280;63628;47.656;11.310;2023-07-31T12:05:25;94602.03;;;21.91;54.14
75051;BME280;63628;47.656;11.310;2023-07-31T12:07:54;94600.91;;;21.92;53.17
75051;BME280;63628;47.656;11.310;2023-07-31T12:10:25;94600.22;;;21.55;58.95
75051;BME280;63628;47.656;11.310;2023-07-31T12:12:59;94592.38;;;22.12;53.37
75051;BME280;63628;47.656;11.310;2023-07-31T12:15:35;94588.38;;;22.40;51.46
75051;BME280;63628;47.656;11.310;2023-07-31T12:18:07;94584.47;;;22.02;53.07
75051;BME280;63628;47.656;11.310;2023-07-31T12:20:34;94575.72;;;21.96;53.39
75051;BME280;63628;47.656;11.310;2023-07-31T12:23:02;94568.56;;;21.61;52.53
75051;BME280;63628;47.656;11.310;2023-07-31T12:25:30;94570.53;;;22.00;52.62
75051;BME280;63628;47.656;11.310;2023-07-31T12:27:57;94569.56;;;21.96;55.53
75051;BME280;63628;47.656;11.310;2023-07-31T12:30:28;94560.44;;;22.45;51.16
75051;BME280;63628;47.656;11.310;2023-07-31T12:32:57;94555.38;;;22.83;52.09
75051;BME280;63628;47.656;11.310;2023-07-31T12:35:23;94553.69;;;22.17;53.62
75051;BME280;63628;47.656;11.310;2023-07-31T12:37:50;94551.13;;;22.11;50.30
75051;BME280;63628;47.656;11.310;2023-07-31T12:40:17;94550.69;;;22.18;54.71
75051;BME280;63628;47.656;11.310;2023-07-31T12:42:52;94548.97;;;22.00;52.70
75051;BME280;63628;47.656;11.310;2023-07-31T12:45:19;94540.66;;;21.88;52.88
75051;BME280;63628;47.656;11.310;2023-07-31T12:47:47;94533.00;;;22.03;53.63
75051;BME280;63628;47.656;11.310;2023-07-31T12:50:15;94534.88;;;21.72;53.11
75051;BME280;63628;47.656;11.310;2023-07-31T12:52:42;94528.78;;;21.89;53.99
75051;BME280;63628;47.656;11.310;2023-07-31T12:55:09;94525.31;;;21.97;53.85
75051;BME280;63628;47.656;11.310;2023-07-31T12:57:37;94523.34;;;22.51;53.70
75051;BME280;63628;47.656;11.310;2023-07-31T13:00:05;94524.72;;;22.96;53.38